createdAt,value
2019-05-03T00:02:36.000Z,74.50
2019-05-03T00:05:09.286Z,73.96
2019-05-03T00:07:38.712Z,74.33
2019-05-03T00:10:08.549Z,74.12
2019-05-03T00:12:37.978Z,73.91
2019-05-03T00:15:18.763Z,73.94
2019-05-03T00:17:48.390Z,73.48
2019-05-03T00:20:17.790Z,73.74
2019-05-03T00:22:47.300Z,73.53
2019-05-03T00:25:16.698Z,73.73
2019-05-03T00:27:46.125Z,73.83
2019-05-03T00:30:15.692Z,74.30
2019-05-03T00:32:45.115Z,74.63
2019-05-03T00:35:31.948Z,74.08
2019-05-03T00:38:03.005Z,74.54
2019-05-03T00:40:32.501Z,74.56
2019-05-03T00:43:02.436Z,74.71
2019-05-03T00:45:31.864Z,74.43
2019-05-03T00:48:01.936Z,74.46
2019-05-03T00:50:32.112Z,74.72
2019-05-03T00:53:02.370Z,74.63
2019-05-03T00:55:32.758Z,74.64
2019-05-03T00:58:02.609Z,74.77
2019-05-03T01:00:32.529Z,74.86
2019-05-03T01:03:02.259Z,74.54
2019-05-03T01:05:33.103Z,74.79
2019-05-03T01:08:02.867Z,74.73
2019-05-03T01:10:33.110Z,74.57
2019-05-03T01:13:02.717Z,73.98
2019-05-03T01:15:39.593Z,74.82
2019-05-03T01:18:12.328Z,74.84
2019-05-03T01:20:42.654Z,75.23
2019-05-03T01:23:12.471Z,75.26
2019-05-03T01:25:42.928Z,75.35
2019-05-03T01:28:12.597Z,75.92
2019-05-03T01:30:42.505Z,75.71
2019-05-03T01:33:12.240Z,75.94
2019-05-03T01:35:42.781Z,75.66
2019-05-03T01:38:12.248Z,75.09
2019-05-03T01:40:41.987Z,75.57
2019-05-03T01:43:11.786Z,75.60
2019-05-03T01:45:42.498Z,76.01
2019-05-03T01:48:16.671Z,76.34
2019-05-03T01:50:47.729Z,76.60
2019-05-03T01:53:24.596Z,77.09
2019-05-03T01:55:54.010Z,77.41
2019-05-03T01:58:24.186Z,77.72
2019-05-03T02:01:02.811Z,77.91
2019-05-03T02:03:34.065Z,77.63
2019-05-03T02:06:03.743Z,77.71
2019-05-03T02:08:33.158Z,77.63
2019-05-03T02:11:02.584Z,77.48
2019-05-03T02:13:32.207Z,77.44
2019-05-03T02:16:02.311Z,77.18
2019-05-03T02:18:31.952Z,77.21
2019-05-03T02:21:01.774Z,76.95
2019-05-03T02:23:31.990Z,76.16
2019-05-03T02:26:03.029Z,75.72
2019-05-03T02:28:32.819Z,74.79
2019-05-03T02:31:03.603Z,75.01
2019-05-03T02:33:33.321Z,75.19
2019-05-03T02:36:03.585Z,75.54
2019-05-03T02:38:34.001Z,76.04
2019-05-03T02:41:03.875Z,75.65
2019-05-03T02:43:36.364Z,75.61
2019-05-03T02:46:25.367Z,75.71
2019-05-03T02:49:02.415Z,75.76
2019-05-03T02:51:31.871Z,75.83
2019-05-03T02:54:01.291Z,75.33
2019-05-03T02:56:30.706Z,74.94
2019-05-03T02:59:00.150Z,75.08
2019-05-03T03:01:30.019Z,74.73
2019-05-03T03:03:59.804Z,74.66
2019-05-03T03:06:31.377Z,75.41
2019-05-03T03:09:00.850Z,75.71
2019-05-03T03:11:35.418Z,76.12
2019-05-03T03:14:05.819Z,76.25
2019-05-03T03:16:36.393Z,76.38
2019-05-03T03:19:06.851Z,75.70
2019-05-03T03:21:40.863Z,75.92
2019-05-03T03:24:16.912Z,74.55
2019-05-03T03:26:47.755Z,73.95
2019-05-03T03:29:18.737Z,73.25
2019-05-03T03:31:51.214Z,72.26
2019-05-03T03:34:28.015Z,71.81
2019-05-03T03:37:03.799Z,70.88
2019-05-03T03:39:27.884Z,70.26
2019-05-03T03:41:58.546Z,69.92
2019-05-03T03:44:28.263Z,70.15
2019-05-03T03:47:00.077Z,69.86
2019-05-03T03:49:31.933Z,70.61
2019-05-03T03:52:06.169Z,70.76
2019-05-03T03:54:36.409Z,71.05
2019-05-03T03:57:08.170Z,71.33
2019-05-03T03:59:37.171Z,71.61
2019-05-03T04:02:06.718Z,71.76
2019-05-03T04:04:36.378Z,72.18
2019-05-03T04:07:06.983Z,72.66
2019-05-03T04:09:36.909Z,72.89
2019-05-03T04:12:06.762Z,73.15
2019-05-03T04:14:56.267Z,73.42
2019-05-03T04:17:27.716Z,73.83
2019-05-03T04:19:59.110Z,74.36
2019-05-03T04:22:28.641Z,74.58
2019-05-03T04:24:58.089Z,74.87
2019-05-03T04:27:27.994Z,75.04
2019-05-03T04:29:57.543Z,75.37
2019-05-03T04:32:28.941Z,75.62
2019-05-03T04:34:58.043Z,75.62
2019-05-03T04:37:27.478Z,75.85
2019-05-03T04:39:56.884Z,75.99
2019-05-03T04:42:26.381Z,76.21
2019-05-03T04:44:56.505Z,76.50
2019-05-03T04:47:26.719Z,76.68
2019-05-03T04:49:56.304Z,76.64
2019-05-03T04:52:26.182Z,76.69
2019-05-03T04:54:59.859Z,76.67
2019-05-03T04:57:39.847Z,76.67
2019-05-03T05:00:00.354Z,76.64
2019-05-03T05:02:31.335Z,76.48
2019-05-03T05:05:00.752Z,76.31
2019-05-03T05:07:30.155Z,76.07
2019-05-03T05:09:59.588Z,75.89
2019-05-03T05:12:29.006Z,75.47
2019-05-03T05:14:58.436Z,75.07
2019-05-03T05:17:35.683Z,74.42
2019-05-03T05:20:14.629Z,74.07
2019-05-03T05:22:45.410Z,73.54
2019-05-03T05:25:16.770Z,72.61
2019-05-03T05:28:04.771Z,71.23
2019-05-03T05:30:35.305Z,70.89
2019-05-03T05:33:06.484Z,70.09
2019-05-03T05:35:35.901Z,69.29
2019-05-03T05:38:05.338Z,67.77
2019-05-03T05:40:35.030Z,66.80
2019-05-03T05:43:05.106Z,66.52
2019-05-03T05:45:34.961Z,66.29
2019-05-03T05:48:06.044Z,66.28
2019-05-03T05:50:37.108Z,67.00
2019-05-03T05:53:06.537Z,67.28
2019-05-03T05:55:54.972Z,67.35
2019-05-03T05:58:28.894Z,67.74
2019-05-03T06:00:59.949Z,66.72
2019-05-03T06:03:29.371Z,65.22
2019-05-03T06:06:00.436Z,64.12
2019-05-03T06:08:44.684Z,63.16
2019-05-03T06:11:15.938Z,62.40
2019-05-03T06:13:46.977Z,61.04
2019-05-03T06:16:34.881Z,58.37
2019-05-03T06:19:15.324Z,59.20
2019-05-03T06:21:55.690Z,58.86
2019-05-03T06:24:29.641Z,57.48
2019-05-03T06:27:15.213Z,56.93
2019-05-03T06:29:45.681Z,56.59
2019-05-03T06:32:25.388Z,56.02
2019-05-03T06:34:54.950Z,54.38
2019-05-03T06:37:31.938Z,54.23
2019-05-03T06:40:01.368Z,52.07
2019-05-03T06:42:30.764Z,51.79
2019-05-03T06:45:08.247Z,51.32
2019-05-03T06:47:31.304Z,51.74
2019-05-03T06:50:00.820Z,48.59
2019-05-03T06:52:30.244Z,43.31
2019-05-03T06:55:00.309Z,40.49
2019-05-03T06:57:30.837Z,37.01
2019-05-03T07:00:17.315Z,37.40
2019-05-03T07:02:48.352Z,35.01
2019-05-03T07:05:28.457Z,33.74
2019-05-03T07:07:59.496Z,33.54
2019-05-03T07:10:35.121Z,34.33
2019-05-03T07:13:08.602Z,32.11
2019-05-03T07:15:36.497Z,33.75
2019-05-03T07:18:05.987Z,36.61
2019-05-03T07:20:44.616Z,39.37
2019-05-03T07:23:15.626Z,38.42
2019-05-03T07:25:45.147Z,39.81
2019-05-03T07:28:15.137Z,41.11
2019-05-03T07:30:45.405Z,44.14
2019-05-03T07:33:32.065Z,44.99
2019-05-03T07:36:01.536Z,45.19
2019-05-03T07:38:30.951Z,47.85
2019-05-03T07:41:00.383Z,48.49
2019-05-03T07:43:29.792Z,47.04
2019-05-03T07:45:59.206Z,47.10
2019-05-03T07:48:28.637Z,47.62
2019-05-03T07:50:58.055Z,48.45
2019-05-03T07:53:27.467Z,50.03
2019-05-03T07:56:05.198Z,50.63
2019-05-03T07:58:39.783Z,51.15
2019-05-03T08:01:10.925Z,52.39
2019-05-03T08:03:40.343Z,51.76
2019-05-03T08:06:09.786Z,52.25
2019-05-03T08:08:39.184Z,52.43
2019-05-03T08:11:08.603Z,49.62
2019-05-03T08:13:38.011Z,46.10
2019-05-03T08:16:07.442Z,43.86
2019-05-03T08:18:36.853Z,42.42
2019-05-03T08:21:06.375Z,40.67
2019-05-03T08:23:35.782Z,39.68
2019-05-03T08:26:05.944Z,37.75
2019-05-03T08:28:35.551Z,34.74
2019-05-03T08:31:09.846Z,33.17
2019-05-03T08:33:40.895Z,30.52
2019-05-03T08:36:10.376Z,30.66
2019-05-03T08:38:39.774Z,29.01
2019-05-03T08:41:10.834Z,28.21
2019-05-03T08:43:40.264Z,29.43
2019-05-03T08:46:09.676Z,30.69
2019-05-03T08:48:39.169Z,31.82
2019-05-03T08:51:08.594Z,32.12
2019-05-03T08:53:37.991Z,35.31
2019-05-03T08:56:07.386Z,31.83
2019-05-03T08:58:36.898Z,28.70
2019-05-03T09:01:06.730Z,24.65
2019-05-03T09:03:38.314Z,24.18
2019-05-03T09:06:07.345Z,22.94
2019-05-03T09:08:36.781Z,21.67
2019-05-03T09:11:10.924Z,22.93
2019-05-03T09:13:57.190Z,23.44
2019-05-03T09:16:26.603Z,26.84
2019-05-03T09:18:56.061Z,32.15
2019-05-03T09:21:25.695Z,30.45
2019-05-03T09:23:55.526Z,26.13
2019-05-03T09:26:29.111Z,26.37
2019-05-03T09:28:56.271Z,27.12
2019-05-03T09:31:25.657Z,27.06
2019-05-03T09:33:55.175Z,29.86
2019-05-03T09:36:25.274Z,29.21
2019-05-03T09:38:55.159Z,29.81
2019-05-03T09:41:25.652Z,29.61
2019-05-03T09:43:55.591Z,26.37
2019-05-03T09:46:26.394Z,21.89
2019-05-03T09:49:03.329Z,20.36
2019-05-03T09:51:27.265Z,17.61
2019-05-03T09:54:01.228Z,16.35
2019-05-03T09:56:55.869Z,15.54
2019-05-03T09:59:19.248Z,18.78
2019-05-03T10:01:48.659Z,16.21
2019-05-03T10:04:18.221Z,16.15
2019-05-03T10:06:47.650Z,15.43
2019-05-03T10:09:17.127Z,14.03
2019-05-03T10:11:46.625Z,14.39
2019-05-03T10:14:16.115Z,14.70
2019-05-03T10:16:47.158Z,14.64
2019-05-03T10:19:16.578Z,15.41
2019-05-03T10:21:47.848Z,15.47
2019-05-03T10:24:17.299Z,17.50
2019-05-03T10:26:46.686Z,18.55
2019-05-03T10:29:16.104Z,18.45
2019-05-03T10:31:59.117Z,19.14
2019-05-03T10:34:28.529Z,19.54
2019-05-03T10:36:57.928Z,18.10
2019-05-03T10:39:27.369Z,16.42
2019-05-03T10:41:56.754Z,13.24
2019-05-03T10:44:26.172Z,13.22
2019-05-03T10:46:56.002Z,14.19
2019-05-03T10:49:25.591Z,17.04
2019-05-03T10:51:56.629Z,19.10
2019-05-03T10:57:10.966Z,17.30
2019-05-03T10:59:40.418Z,15.97
2019-05-03T11:02:11.459Z,14.96
2019-05-03T11:04:43.537Z,16.42
2019-05-03T11:07:11.962Z,17.70
2019-05-03T11:09:49.571Z,20.49
2019-05-03T11:12:14.672Z,23.74
2019-05-03T11:14:45.386Z,25.07
2019-05-03T11:17:15.014Z,26.80
2019-05-03T11:19:45.395Z,28.43
2019-05-03T11:22:14.996Z,30.79
2019-05-03T11:24:45.384Z,33.40
2019-05-03T11:27:19.771Z,34.78
2019-05-03T11:29:49.188Z,34.25
2019-05-03T11:32:22.934Z,34.20
2019-05-03T11:35:11.564Z,33.71
2019-05-03T11:37:41.872Z,34.41
2019-05-03T11:40:11.453Z,34.02
2019-05-03T11:42:40.924Z,32.79
2019-05-03T11:45:11.381Z,30.20
2019-05-03T11:47:40.784Z,27.41
2019-05-03T11:50:10.622Z,27.29
2019-05-03T11:52:40.005Z,27.97
2019-05-03T11:55:11.648Z,29.80
2019-05-03T11:57:40.509Z,30.85
2019-05-03T12:00:12.409Z,32.93
2019-05-03T12:02:45.248Z,33.71
2019-05-03T12:05:19.452Z,34.36
2019-05-03T12:07:48.869Z,34.50
2019-05-03T12:10:32.192Z,34.34
2019-05-03T12:12:57.406Z,34.95
2019-05-03T12:15:26.829Z,34.78
2019-05-03T12:17:59.239Z,34.41
2019-05-03T12:20:30.666Z,34.71
2019-05-03T12:23:00.691Z,34.49
2019-05-03T12:25:31.254Z,35.07
2019-05-03T12:28:01.031Z,36.12
2019-05-03T12:30:30.449Z,35.87
2019-05-03T12:32:59.863Z,37.03
2019-05-03T12:35:29.270Z,37.27
2019-05-03T12:37:58.675Z,36.62
2019-05-03T12:40:28.103Z,35.56
2019-05-03T12:42:57.504Z,35.16
2019-05-03T12:45:26.942Z,36.43
2019-05-03T12:47:56.337Z,36.34
2019-05-03T12:50:25.768Z,35.12
2019-05-03T12:52:55.597Z,35.91
2019-05-03T12:55:25.200Z,34.66
2019-05-03T12:57:55.563Z,33.32
2019-05-03T13:00:29.726Z,33.46
2019-05-03T13:03:00.771Z,32.35
2019-05-03T13:05:30.751Z,30.49
2019-05-03T13:08:23.128Z,31.09
2019-05-03T13:10:52.719Z,29.46
2019-05-03T13:13:22.120Z,30.24
2019-05-03T13:15:51.538Z,30.82
2019-05-03T13:18:20.937Z,29.49
2019-05-03T13:20:50.366Z,30.47
2019-05-03T13:23:19.762Z,30.47
2019-05-03T13:25:49.185Z,29.25
2019-05-03T13:28:18.579Z,28.95
2019-05-03T13:30:48.070Z,29.50
2019-05-03T13:33:17.461Z,28.79
2019-05-03T13:35:46.874Z,29.68
2019-05-03T13:38:16.292Z,31.22
2019-05-03T13:40:46.270Z,30.97
2019-05-03T13:43:15.674Z,31.23
2019-05-03T13:45:45.210Z,32.25
2019-05-03T13:48:16.833Z,32.24
2019-05-03T13:50:45.851Z,33.00
2019-05-03T13:53:16.127Z,33.92
2019-05-03T13:55:45.688Z,33.26
2019-05-03T13:58:15.087Z,33.61
2019-05-03T14:00:45.359Z,33.83
2019-05-03T14:03:15.381Z,35.01
2019-05-03T14:05:44.941Z,34.48
2019-05-03T14:08:15.673Z,34.65
2019-05-03T14:10:45.737Z,34.02
2019-05-03T14:13:15.205Z,33.07
2019-05-03T14:15:45.319Z,32.84
2019-05-03T14:18:15.356Z,33.76
2019-05-03T14:20:46.433Z,34.17
2019-05-03T14:23:15.866Z,33.88
2019-05-03T14:25:45.272Z,34.86
2019-05-03T14:28:14.723Z,34.65
2019-05-03T14:30:45.531Z,35.74
2019-05-03T14:33:14.936Z,35.42
2019-05-03T14:35:45.605Z,35.12
2019-05-03T14:38:15.259Z,35.45
2019-05-03T14:40:44.964Z,35.31
2019-05-03T14:43:15.822Z,35.23
2019-05-03T14:45:45.223Z,35.57
2019-05-03T14:48:15.241Z,36.03
2019-05-03T14:50:45.568Z,35.79
2019-05-03T14:53:15.107Z,35.60
2019-05-03T14:55:46.139Z,35.82
2019-05-03T14:58:35.359Z,36.20
2019-05-03T15:01:09.179Z,36.44
2019-05-03T15:03:38.651Z,36.85
2019-05-03T15:06:08.042Z,36.49
2019-05-03T15:08:37.466Z,36.67
2019-05-03T15:11:06.877Z,37.51
2019-05-03T15:13:36.284Z,36.82
2019-05-03T15:16:05.701Z,37.89
2019-05-03T15:18:35.118Z,38.57
2019-05-03T15:21:05.502Z,36.99
2019-05-03T15:23:35.076Z,37.54
2019-05-03T15:26:05.133Z,37.30
2019-05-03T15:28:35.595Z,37.36
2019-05-03T15:31:05.403Z,38.08
2019-05-03T15:33:35.378Z,38.44
2019-05-03T15:36:05.282Z,38.16
2019-05-03T15:38:34.832Z,38.78
2019-05-03T15:41:05.406Z,39.43
2019-05-03T15:43:45.509Z,39.97
2019-05-03T15:46:19.445Z,41.04
2019-05-03T15:48:50.510Z,41.11
2019-05-03T15:51:19.909Z,41.26
2019-05-03T15:53:49.329Z,40.96
2019-05-03T15:56:20.038Z,40.13
2019-05-03T15:58:49.476Z,40.47
2019-05-03T16:01:18.897Z,40.25
2019-05-03T16:03:48.316Z,40.46
2019-05-03T16:06:17.714Z,40.72
2019-05-03T16:08:47.195Z,41.23
2019-05-03T16:11:17.260Z,41.35
2019-05-03T16:13:46.716Z,41.45
2019-05-03T16:16:16.124Z,40.92
2019-05-03T16:18:45.579Z,41.53
2019-05-03T16:21:14.996Z,41.89
2019-05-03T16:23:46.389Z,43.22
2019-05-03T16:26:15.561Z,44.07
2019-05-03T16:28:46.656Z,44.85
2019-05-03T16:31:17.756Z,45.56
2019-05-03T16:33:47.176Z,46.53
2019-05-03T16:36:16.578Z,47.26
2019-05-03T16:38:45.994Z,47.49
2019-05-03T16:41:17.667Z,47.08
2019-05-03T16:43:46.510Z,48.40
2019-05-03T16:46:15.963Z,51.14
2019-05-03T16:48:45.389Z,52.42
2019-05-03T16:51:17.172Z,56.58
2019-05-03T16:53:46.060Z,58.42
2019-05-03T16:56:17.151Z,59.96
2019-05-03T16:58:46.752Z,57.89
2019-05-03T17:01:18.177Z,57.05
2019-05-03T17:03:48.916Z,57.97
2019-05-03T17:06:26.585Z,57.06
2019-05-03T17:09:00.471Z,55.43
2019-05-03T17:11:29.951Z,55.18
2019-05-03T17:13:59.368Z,56.05
2019-05-03T17:16:28.764Z,56.05
2019-05-03T17:18:58.178Z,55.48
2019-05-03T17:21:27.725Z,55.71
2019-05-03T17:23:57.130Z,57.09
2019-05-03T17:26:26.530Z,57.92
2019-05-03T17:28:55.954Z,57.67
2019-05-03T17:31:25.346Z,57.21
2019-05-03T17:33:56.781Z,55.61
2019-05-03T17:36:25.900Z,56.46
2019-05-03T17:38:56.956Z,55.08
2019-05-03T17:41:34.754Z,51.69
2019-05-03T17:44:05.922Z,53.31
2019-05-03T17:46:35.375Z,53.70
2019-05-03T17:49:05.245Z,54.13
2019-05-03T17:51:42.603Z,53.99
2019-05-03T17:54:16.520Z,55.81
2019-05-03T17:57:04.473Z,56.75
2019-05-03T17:59:38.266Z,56.22
2019-05-03T18:02:25.275Z,56.81
2019-05-03T18:05:12.261Z,56.66
2019-05-03T18:07:45.255Z,57.41
2019-05-03T18:10:15.176Z,57.24
2019-05-03T18:12:45.363Z,57.56
2019-05-03T18:15:15.055Z,57.49
2019-05-03T18:17:44.529Z,58.93
2019-05-03T18:20:15.064Z,61.65
2019-05-03T18:22:44.527Z,63.48
2019-05-03T18:25:15.535Z,63.55
2019-05-03T18:27:44.935Z,64.88
2019-05-03T18:30:14.783Z,63.39
2019-05-03T18:32:45.238Z,62.18
2019-05-03T18:35:15.314Z,61.59
2019-05-03T18:37:46.431Z,61.40
2019-05-03T18:40:15.843Z,63.95
2019-05-03T18:43:04.494Z,62.72
2019-05-03T18:45:35.753Z,62.65
2019-05-03T18:48:05.166Z,63.53
2019-05-03T18:50:35.084Z,63.21
2019-05-03T18:53:04.831Z,63.05
2019-05-03T18:55:34.469Z,63.85
2019-05-03T18:58:04.382Z,64.06
2019-05-03T19:00:35.111Z,63.35
2019-05-03T19:03:04.983Z,63.73
2019-05-03T19:05:36.040Z,62.82
2019-05-03T19:08:19.033Z,64.45
2019-05-03T19:11:06.074Z,63.54
2019-05-03T19:13:37.112Z,63.55
2019-05-03T19:16:08.165Z,63.88
2019-05-03T19:18:39.280Z,64.16
2019-05-03T19:21:08.718Z,63.57
2019-05-03T19:23:38.136Z,64.00
2019-05-03T19:26:07.610Z,63.78
2019-05-03T19:28:37.162Z,63.71
2019-05-03T19:31:06.802Z,64.47
2019-05-03T19:33:37.292Z,64.80
2019-05-03T19:36:06.834Z,64.56
2019-05-03T19:38:36.352Z,64.12
2019-05-03T19:41:05.826Z,65.03
2019-05-03T19:43:35.514Z,65.02
2019-05-03T19:46:07.378Z,64.79
2019-05-03T19:48:36.362Z,63.47
2019-05-03T19:51:05.934Z,63.70
2019-05-03T19:53:39.689Z,63.78
2019-05-03T19:56:11.287Z,64.13
2019-05-03T19:58:40.697Z,64.79
2019-05-03T20:01:26.566Z,65.27
2019-05-03T20:03:57.620Z,64.83
2019-05-03T20:06:45.216Z,64.62
2019-05-03T20:09:25.462Z,65.78
2019-05-03T20:11:55.290Z,68.62
2019-05-03T20:14:25.716Z,69.90
2019-05-03T20:16:55.295Z,70.13
2019-05-03T20:19:25.664Z,70.51
2019-05-03T20:21:56.686Z,70.22
2019-05-03T20:24:26.209Z,70.65
2019-05-03T20:26:55.603Z,70.54
2019-05-03T20:29:25.190Z,70.41
2019-05-03T20:31:55.215Z,70.26
2019-05-03T20:34:25.031Z,69.75
2019-05-03T20:36:54.878Z,69.87
2019-05-03T20:39:25.456Z,69.87
2019-05-03T20:41:55.243Z,69.73
2019-05-03T20:44:26.418Z,69.12
2019-05-03T20:46:57.476Z,69.21
2019-05-03T20:49:26.890Z,69.88
2019-05-03T20:51:56.300Z,70.19
2019-05-03T20:54:25.737Z,71.53
2019-05-03T20:56:55.164Z,72.30
2019-05-03T20:59:25.286Z,72.83
2019-05-03T21:01:54.754Z,72.93
2019-05-03T21:04:24.681Z,73.18
2019-05-03T21:06:55.224Z,73.48
2019-05-03T21:09:24.697Z,73.58
2019-05-03T21:11:55.183Z,73.76
2019-05-03T21:14:24.709Z,74.21
2019-05-03T21:17:04.630Z,74.41
2019-05-03T21:19:38.168Z,74.16
2019-05-03T21:22:09.213Z,73.54
2019-05-03T21:24:43.082Z,72.38
2019-05-03T21:27:12.488Z,72.54
2019-05-03T21:30:01.032Z,72.28
2019-05-03T21:32:30.448Z,72.72
2019-05-03T21:34:59.963Z,73.19
2019-05-03T21:37:29.380Z,73.06
2019-05-03T21:39:58.804Z,73.10
2019-05-03T21:42:28.212Z,73.00
2019-05-03T21:44:57.635Z,72.62
2019-05-03T21:47:28.676Z,73.44
2019-05-03T21:49:59.864Z,73.90
2019-05-03T21:52:29.272Z,74.04
2019-05-03T21:54:58.668Z,74.20
2019-05-03T21:57:28.178Z,74.09
2019-05-03T21:59:57.658Z,74.07
2019-05-03T22:02:27.071Z,73.90
2019-05-03T22:04:56.476Z,73.84
2019-05-03T22:07:26.844Z,73.08
2019-05-03T22:09:56.256Z,72.87
2019-05-03T22:12:25.678Z,72.25
2019-05-03T22:14:56.719Z,71.71
2019-05-03T22:17:44.741Z,71.99
2019-05-03T22:20:24.809Z,72.10
2019-05-03T22:22:55.876Z,71.06
2019-05-03T22:25:26.905Z,70.55
2019-05-03T22:27:56.355Z,70.93
2019-05-03T22:30:26.828Z,71.74
2019-05-03T22:32:56.415Z,72.43
2019-05-03T22:35:25.811Z,72.85
2019-05-03T22:37:55.223Z,73.42
2019-05-03T22:40:25.159Z,73.73
2019-05-03T22:42:54.636Z,74.10
2019-05-03T22:45:24.061Z,74.42
2019-05-03T22:47:54.975Z,73.74
2019-05-03T22:50:25.476Z,74.46
2019-05-03T22:52:55.142Z,74.79
2019-05-03T22:55:24.783Z,74.14
2019-05-03T22:57:54.649Z,73.96
2019-05-03T23:00:25.189Z,74.10
2019-05-03T23:02:54.905Z,74.10
2019-05-03T23:05:24.307Z,74.38
2019-05-03T23:07:55.241Z,74.49
2019-05-03T23:10:25.690Z,76.32
2019-05-03T23:12:55.247Z,76.70
2019-05-03T23:15:24.673Z,76.67
2019-05-03T23:17:54.533Z,75.76
2019-05-03T23:20:42.170Z,77.10
2019-05-03T23:23:14.463Z,76.46
2019-05-03T23:25:44.901Z,75.99
2019-05-03T23:28:14.564Z,76.40
2019-05-03T23:30:43.959Z,76.96
2019-05-03T23:33:14.531Z,76.62
2019-05-03T23:35:44.497Z,76.43
2019-05-03T23:38:15.149Z,76.56
2019-05-03T23:40:44.785Z,76.40
2019-05-03T23:43:14.492Z,76.71
2019-05-03T23:45:45.284Z,76.79
2019-05-03T23:48:14.986Z,76.76
2019-05-03T23:50:44.621Z,76.69
2019-05-03T23:53:15.382Z,76.54
2019-05-03T23:55:46.566Z,76.65
2019-05-03T23:58:15.979Z,76.87
